Time;durP1;ratioP1;P1;durP2;ratioP2;P2;SDS_P1;SDS_P2;PMS_P1;PMS_P2;Temp;Humidity;BMP_temperature;BMP_pressure;BME280_temperature;BME280_humidity;BME280_pressure;Samples;Min_cycle;Max_cycle;Signal;HPM_P1;HPM_P2
2022/06/16 00:01:55;;;;;;;7.30;6.03;;;13.20;99.90;;;;;;4855037;29;20053;-78
2022/06/16 00:04:24;;;;;;;9.27;6.07;;;13.10;99.90;;;;;;4853998;29;20040;-78
2022/06/16 00:06:50;;;;;;;9.37;6.10;;;13.20;99.90;;;;;;4857564;29;20044;-78
2022/06/16 00:09:16;;;;;;;8.07;6.17;;;13.20;99.90;;;;;;4863383;29;20684;-78
2022/06/16 00:11:42;;;;;;;9.77;6.30;;;13.20;99.90;;;;;;4843140;29;20064;-78
2022/06/16 00:14:08;;;;;;;10.77;6.40;;;13.10;99.90;;;;;;4841810;29;20109;-78
2022/06/16 00:16:34;;;;;;;8.70;6.70;;;13.10;99.90;;;;;;4858369;29;20472;-78
2022/06/16 00:18:59;;;;;;;10.33;7.43;;;13.10;99.90;;;;;;4849359;29;20048;-78
2022/06/16 00:21:25;;;;;;;8.67;7.77;;;13.00;99.90;;;;;;4862235;29;20076;-78
2022/06/16 00:23:51;;;;;;;8.93;6.97;;;13.00;99.90;;;;;;4856846;29;20483;-78
2022/06/16 00:26:19;;;;;;;11.70;7.37;;;13.00;99.90;;;;;;4844850;29;20133;-78
2022/06/16 00:28:46;;;;;;;12.13;8.00;;;12.90;99.90;;;;;;4871371;29;20045;-78
2022/06/16 00:31:14;;;;;;;10.07;7.93;;;12.90;99.90;;;;;;4870443;29;20112;-78
2022/06/16 00:33:40;;;;;;;9.97;7.83;;;12.80;99.90;;;;;;4860433;29;20559;-78
2022/06/16 00:36:06;;;;;;;7.80;7.00;;;12.80;99.90;;;;;;4829031;29;20042;-78
2022/06/16 00:38:32;;;;;;;10.27;6.33;;;12.80;99.90;;;;;;4868381;29;20045;-77
2022/06/16 00:40:58;;;;;;;9.37;6.53;;;12.70;99.90;;;;;;4852997;29;20049;-77
2022/06/16 00:43:24;;;;;;;10.40;6.73;;;12.60;99.90;;;;;;4859652;29;20054;-78
2022/06/16 00:45:50;;;;;;;7.80;5.90;;;12.50;99.90;;;;;;4855693;29;20037;-76
2022/06/16 00:48:34;;;;;;;8.37;6.33;;;12.50;99.90;;;;;;4844205;29;20041;-78
2022/06/16 00:51:26;;;;;;;13.67;6.80;;;12.50;99.90;;;;;;4875322;29;20079;-77
2022/06/16 00:53:56;;;;;;;10.57;6.90;;;12.50;99.90;;;;;;4870642;29;20101;-78
2022/06/16 00:56:22;;;;;;;11.87;7.23;;;12.50;99.90;;;;;;4856180;29;20593;-78
2022/06/16 00:58:53;;;;;;;9.80;5.87;;;12.50;99.90;;;;;;4869267;29;20120;-78
2022/06/16 01:01:21;;;;;;;10.90;5.35;;;12.50;99.90;;;;;;4843187;29;20041;-78
2022/06/16 01:06:32;;;;;;;10.83;6.83;;;12.50;99.90;;;;;;4876180;29;20508;-78
2022/06/16 01:09:07;;;;;;;12.60;7.03;;;12.50;99.90;;;;;;4865557;29;20128;-78
2022/06/16 01:15:12;;;;;;;12.83;6.43;;;12.40;99.90;;;;;;4850536;29;20449;-78
2022/06/16 01:18:03;;;;;;;8.00;6.17;;;12.40;99.90;;;;;;4865082;29;20082;-78
2022/06/16 01:20:43;;;;;;;6.07;5.40;;;12.30;99.90;;;;;;4861724;29;20189;-78
2022/06/16 01:23:37;;;;;;;10.73;6.63;;;12.30;99.90;;;;;;4871796;29;20120;-78
2022/06/16 01:26:23;;;;;;;10.13;6.10;;;12.30;99.90;;;;;;4842995;29;20049;-78
2022/06/16 01:29:06;;;;;;;9.10;5.83;;;12.20;99.90;;;;;;4846824;29;20123;-78
2022/06/16 01:31:50;;;;;;;8.13;6.13;;;12.20;99.90;;;;;;4847876;29;20104;-78
2022/06/16 01:34:56;;;;;;;10.00;5.80;;;12.10;99.90;;;;;;4859382;29;20422;-78
2022/06/16 01:37:24;;;;;;;7.83;5.80;;;12.20;99.90;;;;;;4755133;29;20055;-78
2022/06/16 01:40:07;;;;;;;8.50;6.10;;;12.20;99.90;;;;;;4862837;29;20045;-78
2022/06/16 01:43:00;;;;;;;8.97;6.10;;;12.20;99.90;;;;;;4855869;29;20119;-79
2022/06/16 01:45:37;;;;;;;9.23;5.83;;;12.10;99.90;;;;;;4857547;29;20053;-78
2022/06/16 01:48:07;;;;;;;6.47;5.60;;;12.10;99.90;;;;;;4846673;29;20083;-78
2022/06/16 01:50:52;;;;;;;9.93;6.17;;;12.10;99.90;;;;;;4861154;29;20387;-78
2022/06/16 01:53:28;;;;;;;11.53;5.60;;;12.00;99.90;;;;;;4859900;29;20521;-78
2022/06/16 01:56:10;;;;;;;7.17;5.70;;;11.90;99.90;;;;;;4863836;29;20045;-78
2022/06/16 01:58:40;;;;;;;11.02;6.65;;;11.80;99.90;;;;;;4872431;29;20041;-78
2022/06/16 02:01:08;;;;;;;10.17;5.77;;;11.60;99.90;;;;;;4870401;29;20048;-78
2022/06/16 02:03:51;;;;;;;10.50;6.70;;;11.60;99.90;;;;;;4872288;29;20048;-78
2022/06/16 02:06:28;;;;;;;;;;;11.60;99.90;;;;;;4891500;29;20048;-78
2022/06/16 02:08:59;;;;;;;10.10;7.27;;;11.60;99.90;;;;;;4875462;29;19919;-78
2022/06/16 02:11:32;;;;;;;9.50;6.70;;;11.70;99.90;;;;;;4871538;29;20124;-78
2022/06/16 02:14:21;;;;;;;12.70;7.33;;;11.70;99.90;;;;;;4856358;29;20161;-77
2022/06/16 02:16:48;;;;;;;9.30;6.87;;;11.80;99.90;;;;;;4851860;29;20148;-77
2022/06/16 02:19:18;;;;;;;12.63;7.77;;;11.80;99.90;;;;;;4846721;29;20045;-77
2022/06/16 02:21:46;;;;;;;14.03;8.40;;;11.80;99.90;;;;;;4848532;29;20055;-77
2022/06/16 02:24:15;;;;;;;15.67;8.00;;;11.90;99.90;;;;;;4859565;29;20156;-77
2022/06/16 02:26:42;;;;;;;17.60;8.43;;;12.00;99.90;;;;;;4873819;29;20413;-77
2022/06/16 02:29:37;;;;;;;11.73;8.03;;;12.00;99.90;;;;;;4818644;29;20144;-77
2022/06/16 02:32:15;;;;;;;13.47;7.97;;;12.10;99.90;;;;;;4855986;29;20771;-77
2022/06/16 02:34:58;;;;;;;11.77;6.97;;;12.10;99.90;;;;;;4875193;29;20096;-77
2022/06/16 02:37:39;;;;;;;11.60;7.20;;;12.10;99.90;;;;;;4863545;29;20120;-77
2022/06/16 02:40:31;;;;;;;17.02;8.70;;;12.20;99.90;;;;;;4853684;29;20051;-77
2022/06/16 02:43:34;;;;;;;12.50;7.25;;;12.10;99.90;;;;;;4862797;29;20049;-77
2022/06/16 02:46:05;;;;;;;13.07;8.17;;;12.10;99.90;;;;;;4856368;29;20195;-77
2022/06/16 02:48:40;;;;;;;12.75;8.13;;;12.00;99.90;;;;;;4867467;29;20407;-77
2022/06/16 02:51:33;;;;;;;12.20;8.20;;;12.00;99.90;;;;;;4867868;29;20057;-77
2022/06/16 02:54:13;;;;;;;12.73;7.80;;;12.00;99.90;;;;;;4873557;29;20051;-77
2022/06/16 02:56:45;;;;;;;13.23;7.80;;;12.00;99.90;;;;;;4844787;29;20150;-78
2022/06/16 02:59:19;;;;;;;13.10;8.43;;;12.00;99.90;;;;;;4870433;29;20371;-78
2022/06/16 03:01:45;;;;;;;12.30;7.47;;;12.10;99.90;;;;;;4868693;29;20040;-77
2022/06/16 03:04:14;;;;;;;11.93;7.30;;;12.10;99.90;;;;;;4864725;29;20049;-77
2022/06/16 03:06:41;;;;;;;12.83;7.90;;;12.10;99.90;;;;;;4860171;29;20034;-77
2022/06/16 03:09:07;;;;;;;13.60;8.10;;;12.10;99.90;;;;;;4854365;29;20144;-77
2022/06/16 03:11:33;;;;;;;11.13;7.53;;;12.10;99.90;;;;;;4851514;29;20494;-77
2022/06/16 03:14:00;;;;;;;11.87;7.37;;;12.10;99.90;;;;;;4858185;29;20041;-77
2022/06/16 03:16:26;;;;;;;12.30;6.70;;;12.10;99.90;;;;;;4869951;29;20092;-77
2022/06/16 03:18:52;;;;;;;13.43;7.57;;;12.10;99.90;;;;;;4861460;29;20052;-78
2022/06/16 03:21:18;;;;;;;10.50;6.80;;;12.10;99.90;;;;;;4860362;29;20054;-78
2022/06/16 03:23:44;;;;;;;13.07;7.30;;;12.10;99.90;;;;;;4853562;29;20052;-78
2022/06/16 03:26:09;;;;;;;11.50;6.97;;;12.20;99.90;;;;;;4853029;29;20043;-78
2022/06/16 03:28:36;;;;;;;10.73;6.97;;;12.20;99.90;;;;;;4869148;29;20103;-78
2022/06/16 03:31:02;;;;;;;14.70;6.90;;;12.20;99.90;;;;;;4861529;29;20075;-78
2022/06/16 03:33:28;;;;;;;11.10;6.80;;;12.30;99.90;;;;;;4843519;29;20128;-78
2022/06/16 03:35:54;;;;;;;9.47;6.67;;;12.20;99.90;;;;;;4866783;29;20052;-78
2022/06/16 03:41:01;;;;;;;12.20;6.50;;;12.20;99.90;;;;;;4856030;29;20052;-78
2022/06/16 03:43:26;;;;;;;9.63;6.03;;;12.30;99.90;;;;;;4841974;29;20041;-78
2022/06/16 03:45:52;;;;;;;10.03;5.97;;;12.40;99.90;;;;;;4863134;29;20391;-78
2022/06/16 03:48:18;;;;;;;9.10;6.33;;;12.40;99.90;;;;;;4853770;29;20051;-78
2022/06/16 03:50:43;;;;;;;10.47;6.53;;;12.50;99.90;;;;;;4862804;29;20052;-78
2022/06/16 03:53:10;;;;;;;10.70;5.97;;;12.40;99.90;;;;;;4848060;29;20105;-78
2022/06/16 03:55:35;;;;;;;12.43;6.20;;;12.40;99.90;;;;;;4860534;29;20444;-78
2022/06/16 03:58:01;;;;;;;9.80;5.97;;;12.40;99.90;;;;;;4853889;29;20036;-78
2022/06/16 04:00:27;;;;;;;9.60;5.90;;;12.40;99.90;;;;;;4846636;29;20044;-78
2022/06/16 04:03:59;;;;;;;8.97;5.47;;;12.40;99.90;;;;;;4852088;29;20040;-78
2022/06/16 04:05:40;;;;;;;9.23;5.03;;;12.40;99.90;;;;;;4865370;29;20131;-78
2022/06/16 04:08:07;;;;;;;11.03;5.73;;;12.40;99.90;;;;;;4844708;29;20388;-78
2022/06/16 04:10:33;;;;;;;7.40;5.30;;;12.30;99.90;;;;;;4846277;29;20492;-78
2022/06/16 04:12:59;;;;;;;10.77;5.20;;;12.30;99.90;;;;;;4859281;29;20057;-78
2022/06/16 04:15:24;;;;;;;7.93;5.43;;;12.20;99.90;;;;;;4830485;29;20109;-78
2022/06/16 04:17:50;;;;;;;7.07;4.80;;;12.20;99.90;;;;;;4851723;29;20033;-78
2022/06/16 04:20:16;;;;;;;9.33;5.30;;;12.20;99.90;;;;;;4871909;29;20075;-78
2022/06/16 04:22:42;;;;;;;8.23;5.30;;;12.30;99.90;;;;;;4855986;29;20873;-78
2022/06/16 04:25:12;;;;;;;8.97;5.77;;;12.30;99.90;;;;;;4842370;29;20137;-78
2022/06/16 04:27:40;;;;;;;8.10;6.20;;;12.30;99.90;;;;;;4865685;29;20044;-78
2022/06/16 04:30:07;;;;;;;12.83;7.03;;;12.40;99.90;;;;;;4844344;29;20053;-78
2022/06/16 04:32:33;;;;;;;11.93;5.83;;;12.30;99.90;;;;;;4873481;29;20063;-78
2022/06/16 04:34:58;;;;;;;8.63;5.70;;;12.40;99.90;;;;;;4858232;29;20038;-78
2022/06/16 04:37:24;;;;;;;8.67;5.03;;;12.60;99.90;;;;;;4849350;29;20037;-78
2022/06/16 04:39:50;;;;;;;11.17;7.50;;;12.70;99.90;;;;;;4885985;29;20140;-78
2022/06/16 04:42:15;;;;;;;14.27;8.70;;;12.80;99.90;;;;;;4885946;29;20052;-78
2022/06/16 04:44:41;;;;;;;14.87;9.83;;;12.90;99.90;;;;;;4833624;29;20080;-78
2022/06/16 04:47:08;;;;;;;14.17;9.63;;;13.00;99.90;;;;;;4850405;29;20060;-78
2022/06/16 04:49:34;;;;;;;15.63;9.10;;;13.20;99.90;;;;;;4864159;29;20084;-78
2022/06/16 04:52:01;;;;;;;12.47;8.00;;;13.40;99.90;;;;;;4839505;29;20049;-77
2022/06/16 04:54:26;;;;;;;13.57;7.27;;;13.50;99.90;;;;;;4867561;29;20045;-77
2022/06/16 04:56:52;;;;;;;10.97;8.13;;;13.60;99.90;;;;;;4850889;29;20066;-78
2022/06/16 04:59:18;;;;;;;11.07;6.57;;;13.70;99.90;;;;;;4870680;29;20558;-77
2022/06/16 05:01:44;;;;;;;11.93;6.50;;;13.70;99.90;;;;;;4841680;29;20033;-78
2022/06/16 05:04:10;;;;;;;9.70;6.30;;;13.80;99.90;;;;;;4846071;29;20454;-78
2022/06/16 05:06:36;;;;;;;9.00;6.37;;;13.80;99.90;;;;;;4838364;29;20096;-77
2022/06/16 05:09:02;;;;;;;11.20;6.70;;;13.90;99.90;;;;;;4867337;29;20296;-77
2022/06/16 05:11:28;;;;;;;9.57;6.40;;;13.90;99.90;;;;;;4871627;29;20052;-79
2022/06/16 05:13:54;;;;;;;8.63;6.17;;;14.00;99.90;;;;;;4845399;29;20045;-78
2022/06/16 05:16:20;;;;;;;7.43;6.07;;;14.00;99.90;;;;;;4830075;29;20639;-79
2022/06/16 05:18:46;;;;;;;9.53;5.80;;;14.00;99.90;;;;;;4858696;29;20235;-77
2022/06/16 05:21:13;;;;;;;10.03;5.67;;;14.10;99.90;;;;;;4841957;29;20093;-77
2022/06/16 05:23:40;;;;;;;11.87;6.10;;;14.10;99.90;;;;;;4855752;29;20824;-78
2022/06/16 05:26:08;;;;;;;7.03;5.60;;;14.20;99.90;;;;;;4856828;29;20084;-78
2022/06/16 05:28:35;;;;;;;9.60;5.70;;;14.20;99.90;;;;;;4842239;29;20052;-77
2022/06/16 05:31:01;;;;;;;10.13;6.17;;;14.30;99.90;;;;;;4840914;29;20129;-78
2022/06/16 05:33:27;;;;;;;9.47;5.90;;;14.30;99.90;;;;;;4855415;29;20120;-77
2022/06/16 05:36:05;;;;;;;11.13;6.80;;;14.30;99.90;;;;;;4841021;29;20045;-77
2022/06/16 05:38:31;;;;;;;10.20;6.57;;;14.40;99.90;;;;;;4854293;29;20097;-77
2022/06/16 05:41:03;;;;;;;9.57;6.03;;;14.40;99.90;;;;;;4856208;29;20065;-77
2022/06/16 05:43:30;;;;;;;12.02;6.78;;;14.50;99.90;;;;;;4840049;29;20048;-77
2022/06/16 05:45:56;;;;;;;11.43;6.23;;;14.50;99.90;;;;;;4855043;29;20041;-77
2022/06/16 05:48:22;;;;;;;9.67;5.60;;;14.60;99.90;;;;;;4840255;29;20049;-78
2022/06/16 05:50:48;;;;;;;7.87;4.97;;;14.60;99.90;;;;;;4856721;29;20783;-78
2022/06/16 05:53:14;;;;;;;7.37;4.87;;;14.70;99.90;;;;;;4830830;29;20128;-78
2022/06/16 05:55:39;;;;;;;7.43;4.20;;;14.70;99.90;;;;;;4862354;29;20136;-78
2022/06/16 05:58:05;;;;;;;8.57;4.20;;;14.70;99.90;;;;;;4851329;29;20384;-77
2022/06/16 06:00:31;;;;;;;7.53;3.80;;;14.80;99.90;;;;;;4851754;29;20392;-78
2022/06/16 06:02:58;;;;;;;5.73;3.37;;;14.80;99.90;;;;;;4852831;29;20057;-78
2022/06/16 06:05:26;;;;;;;6.05;3.53;;;14.90;99.90;;;;;;4841545;29;20048;-78
2022/06/16 06:16:26;;;;;;;8.25;2.90;;;15.30;99.90;;;;;;4853790;29;20052;-80
2022/06/16 06:19:23;;;;;;;6.55;2.78;;;15.60;99.90;;;;;;4851388;29;20041;-79
2022/06/16 06:22:06;;;;;;;8.02;3.42;;;15.80;99.90;;;;;;4848168;29;20054;-79
2022/06/16 06:25:01;;;;;;;5.57;3.50;;;15.90;99.90;;;;;;4850278;29;20056;-80
2022/06/16 06:27:40;;;;;;;2.90;2.35;;;16.10;99.90;;;;;;4838208;29;20048;-80
2022/06/16 06:30:12;;;;;;;8.55;4.18;;;16.30;99.90;;;;;;4857436;29;20044;-80
2022/06/16 06:32:37;;;;;;;5.20;3.95;;;16.40;99.90;;;;;;4857270;29;20538;-80
2022/06/16 06:35:04;;;;;;;4.60;4.18;;;16.40;99.90;;;;;;4871142;29;20053;-77
2022/06/16 06:37:30;;;;;;;5.38;3.22;;;16.50;99.90;;;;;;4828316;29;20053;-78
2022/06/16 06:39:55;;;;;;;6.25;3.13;;;16.60;99.90;;;;;;4846487;29;20045;-78
2022/06/16 06:42:22;;;;;;;5.88;2.85;;;16.80;99.90;;;;;;4852350;29;20040;-78
2022/06/16 06:44:47;;;;;;;3.85;2.60;;;17.00;99.90;;;;;;4859665;29;20131;-78
2022/06/16 06:47:21;;;;;;;5.95;3.22;;;17.10;99.90;;;;;;4848913;29;20627;-78
2022/06/16 06:49:47;;;;;;;7.13;2.92;;;17.10;99.90;;;;;;4853214;29;20454;-79
2022/06/16 06:52:13;;;;;;;5.40;2.80;;;17.10;99.90;;;;;;4840289;29;20158;-78
2022/06/16 06:54:39;;;;;;;3.38;2.40;;;17.20;99.90;;;;;;4868712;29;20185;-77
2022/06/16 06:57:05;;;;;;;3.22;2.65;;;17.30;99.90;;;;;;4863187;29;20132;-79
2022/06/16 06:59:31;;;;;;;4.72;2.47;;;17.40;99.90;;;;;;4857738;29;20045;-79
2022/06/16 07:01:57;;;;;;;2.22;1.65;;;17.50;99.90;;;;;;4853551;29;20048;-78
2022/06/16 07:04:23;;;;;;;2.95;1.40;;;17.70;99.90;;;;;;4867272;29;20080;-79
2022/06/16 07:06:49;;;;;;;3.70;1.30;;;17.80;99.90;;;;;;4836658;29;20049;-80
2022/06/16 07:09:17;;;;;;;2.42;1.20;;;17.90;99.90;;;;;;4852653;29;20053;-78
2022/06/16 07:11:43;;;;;;;1.83;1.30;;;18.00;99.90;;;;;;4844039;29;20093;-79
2022/06/16 07:14:10;;;;;;;5.10;1.35;;;18.00;99.90;;;;;;4860588;29;20049;-78
2022/06/16 07:16:37;;;;;;;2.88;2.15;;;18.10;99.90;;;;;;4866962;29;20037;-79
2022/06/16 07:19:03;;;;;;;1.48;1.20;;;18.10;99.90;;;;;;4872755;29;20087;-79
2022/06/16 07:21:29;;;;;;;3.95;1.85;;;18.30;99.90;;;;;;4853848;29;20145;-78
2022/06/16 07:23:55;;;;;;;1.38;1.15;;;18.40;99.90;;;;;;4844975;29;20136;-79
2022/06/16 07:26:22;;;;;;;3.42;1.30;;;18.50;99.90;;;;;;4848916;29;20041;-79
2022/06/16 07:28:48;;;;;;;3.65;1.52;;;18.60;99.90;;;;;;4865197;29;20084;-79
2022/06/16 07:31:15;;;;;;;3.35;2.00;;;18.60;99.90;;;;;;4852997;29;20052;-79
2022/06/16 07:33:41;;;;;;;2.08;1.90;;;18.70;99.90;;;;;;4850058;29;20612;-79
2022/06/16 07:36:08;;;;;;;4.00;1.98;;;18.60;99.90;;;;;;4855754;29;20045;-80
2022/06/16 07:38:34;;;;;;;2.90;1.90;;;18.60;99.90;;;;;;4854346;29;20057;-79
2022/06/16 07:43:44;;;;;;;4.38;2.15;;;18.80;99.90;;;;;;4862089;29;20040;-80
2022/06/16 07:46:10;;;;;;;2.28;2.10;;;18.80;99.90;;;;;;4834201;29;20053;-79
2022/06/16 07:48:36;;;;;;;3.40;2.33;;;18.70;99.90;;;;;;4855924;29;20116;-79
2022/06/16 07:51:02;;;;;;;2.67;2.20;;;18.70;99.90;;;;;;4842935;29;20052;-79
2022/06/16 07:53:28;;;;;;;4.32;2.65;;;18.80;99.90;;;;;;4847317;29;20049;-79
2022/06/16 07:55:54;;;;;;;3.03;2.50;;;18.90;99.90;;;;;;4861237;29;20047;-79
2022/06/16 07:58:20;;;;;;;4.03;2.13;;;19.10;99.90;;;;;;4867813;29;20140;-81
2022/06/16 08:00:45;;;;;;;4.43;2.20;;;19.10;99.90;;;;;;4852495;29;20129;-79
2022/06/16 08:03:11;;;;;;;2.50;1.85;;;19.10;99.90;;;;;;4862199;29;20045;-79
2022/06/16 08:05:37;;;;;;;4.82;2.20;;;19.30;99.90;;;;;;4869515;29;20055;-79
2022/06/16 08:08:03;;;;;;;2.65;2.13;;;19.50;99.90;;;;;;4867601;29;20145;-79
2022/06/16 08:10:34;;;;;;;3.25;2.08;;;19.50;99.90;;;;;;4859984;29;20049;-79
2022/06/16 08:13:00;;;;;;;2.67;2.42;;;19.70;99.90;;;;;;4861069;29;20045;-78
2022/06/16 08:15:26;;;;;;;3.72;1.90;;;19.70;99.90;;;;;;4844836;29;20049;-79
2022/06/16 08:17:54;;;;;;;5.82;2.00;;;19.70;99.90;;;;;;4863541;29;20043;-79
2022/06/16 08:20:20;;;;;;;3.13;1.92;;;19.70;99.90;;;;;;4861798;29;20498;-79
2022/06/16 08:22:46;;;;;;;5.07;2.33;;;19.60;99.90;;;;;;4869390;29;20099;-80
2022/06/16 08:25:12;;;;;;;3.83;2.30;;;19.70;99.90;;;;;;4870363;29;20040;-79
2022/06/16 08:27:40;;;;;;;2.70;1.80;;;19.60;99.90;;;;;;4862198;29;20053;-80
2022/06/16 08:30:10;;;;;;;2.85;2.50;;;19.70;99.90;;;;;;4875167;29;20049;-80
2022/06/16 08:32:36;;;;;;;3.38;2.20;;;19.90;99.90;;;;;;4843581;29;20063;-80
2022/06/16 08:35:03;;;;;;;6.00;2.30;;;20.00;99.90;;;;;;4854273;29;20707;-80
2022/06/16 08:37:29;;;;;;;4.90;2.10;;;19.90;99.90;;;;;;4877589;29;20045;-81
2022/06/16 08:39:55;;;;;;;5.60;1.88;;;20.00;99.90;;;;;;4865903;29;20092;-79
2022/06/16 08:42:40;;;;;;;3.60;2.08;;;20.00;99.90;;;;;;4855974;29;20068;-81
2022/06/16 08:45:31;;;;;;;3.83;1.92;;;20.10;99.90;;;;;;4875844;29;20443;-79
2022/06/16 08:48:02;;;;;;;2.90;1.60;;;20.30;99.90;;;;;;4854371;29;20045;-81
2022/06/16 08:51:04;;;;;;;3.00;1.80;;;20.30;99.90;;;;;;4847988;29;20124;-79
2022/06/16 08:53:49;;;;;;;3.67;1.85;;;20.20;99.90;;;;;;4810253;29;20057;-80
2022/06/16 08:56:36;;;;;;;3.63;1.70;;;20.20;99.90;;;;;;4849574;29;20049;-80
2022/06/16 08:59:27;;;;;;;4.93;2.47;;;20.30;99.90;;;;;;4869035;29;20048;-80
2022/06/16 09:02:07;;;;;;;5.13;2.10;;;20.50;99.90;;;;;;4865204;29;20037;-80
2022/06/16 09:04:41;;;;;;;2.90;2.20;;;20.40;99.90;;;;;;4857268;29;20059;-80
2022/06/16 09:07:32;;;;;;;2.42;2.22;;;20.50;99.90;;;;;;4878184;29;20052;-79
2022/06/16 09:10:16;;;;;;;2.70;2.28;;;20.60;99.90;;;;;;4856375;29;20044;-80
2022/06/16 09:13:19;;;;;;;5.47;2.80;;;20.50;99.90;;;;;;4870577;29;20052;-79
2022/06/16 09:16:22;;;;;;;3.03;2.15;;;20.60;99.90;;;;;;4866215;29;20048;-78
2022/06/16 09:19:20;;;;;;;;;;;20.60;99.90;;;;;;4857636;29;20117;-80
2022/06/16 09:21:58;;;;;;;3.97;2.13;;;20.60;99.90;;;;;;4836935;29;20006;-79
2022/06/16 09:24:54;;;;;;;5.60;2.78;;;20.80;99.90;;;;;;4869823;29;20064;-81
2022/06/16 09:27:49;;;;;;;9.88;3.83;;;20.90;99.90;;;;;;4849952;29;20060;-79
2022/06/16 09:30:26;;;;;;;7.18;3.78;;;20.80;99.90;;;;;;4882974;29;20127;-80
2022/06/16 09:32:58;;;;;;;5.00;3.50;;;20.90;99.90;;;;;;4846925;29;20117;-79
2022/06/16 09:35:31;;;;;;;7.03;4.32;;;20.90;99.90;;;;;;4853909;29;20052;-79
2022/06/16 09:38:16;;;;;;;6.18;3.78;;;20.90;99.90;;;;;;4868562;29;20076;-79
2022/06/16 09:41:00;;;;;;;4.75;3.63;;;20.90;99.90;;;;;;4871667;29;20077;-79
2022/06/16 09:43:29;;;;;;;5.72;3.38;;;21.00;99.90;;;;;;4864338;29;20051;-79
2022/06/16 09:46:11;;;;;;;6.55;3.83;;;21.20;99.90;;;;;;4858424;29;20411;-79
2022/06/16 09:48:41;;;;;;;5.10;3.58;;;21.10;99.90;;;;;;4887548;29;20033;-79
2022/06/16 09:51:32;;;;;;;7.82;3.40;;;21.20;99.90;;;;;;4869062;29;20053;-79
2022/06/16 09:54:24;;;;;;;5.30;4.45;;;21.60;99.90;;;;;;4850964;29;20052;-78
2022/06/16 09:57:15;;;;;;;5.55;3.33;;;21.60;99.90;;;;;;4864341;29;20060;-80
2022/06/16 09:59:41;;;;;;;4.45;3.63;;;21.70;99.90;;;;;;4871371;29;20116;-80
2022/06/16 10:02:18;;;;;;;5.72;3.50;;;21.80;99.90;;;;;;4874906;29;20045;-79
2022/06/16 10:04:44;;;;;;;5.38;4.25;;;21.80;99.90;;;;;;4863606;29;20080;-79
2022/06/16 10:07:32;;;;;;;15.88;4.15;;;21.90;99.90;;;;;;4874425;29;20087;-80
2022/06/16 10:10:21;;;;;;;7.55;4.15;;;22.00;99.90;;;;;;4856175;29;20049;-80
2022/06/16 10:13:09;;;;;;;10.13;4.15;;;21.90;99.90;;;;;;4847351;29;20761;-80
2022/06/16 10:15:45;;;;;;;8.85;4.30;;;21.90;99.90;;;;;;4873966;29;20487;-79
2022/06/16 10:18:11;;;;;;;5.22;3.90;;;21.60;99.90;;;;;;4870661;29;20126;-79
2022/06/16 10:20:38;;;;;;;5.45;3.83;;;21.50;99.90;;;;;;4857136;29;20173;-80
2022/06/16 10:23:25;;;;;;;5.22;3.88;;;21.70;99.90;;;;;;4853437;29;20063;-80
2022/06/16 10:25:58;;;;;;;5.60;4.22;;;21.90;99.90;;;;;;4865419;29;20044;-79
2022/06/16 10:28:46;;;;;;;8.63;4.45;;;22.10;99.90;;;;;;4862343;29;20053;-80
2022/06/16 10:31:32;;;;;;;5.60;3.80;;;22.20;98.30;;;;;;4840557;29;20051;-80
2022/06/16 10:33:58;;;;;;;13.57;4.25;;;22.20;99.90;;;;;;4875447;29;20040;-81
2022/06/16 10:36:26;;;;;;;6.78;3.97;;;22.20;99.90;;;;;;4859032;29;20074;-80
2022/06/16 10:39:15;;;;;;;6.60;3.95;;;22.10;99.90;;;;;;4846325;29;20128;-79
2022/06/16 10:41:50;;;;;;;6.55;4.05;;;22.10;99.50;;;;;;4850240;29;20057;-79
2022/06/16 10:44:18;;;;;;;8.15;4.28;;;22.20;98.70;;;;;;4874136;29;20041;-80
2022/06/16 10:46:55;;;;;;;6.43;4.32;;;22.20;95.70;;;;;;4860231;29;20049;-79
2022/06/16 10:49:26;;;;;;;8.63;4.90;;;22.20;97.20;;;;;;4880580;29;20474;-80
2022/06/16 10:51:57;;;;;;;6.82;4.00;;;22.30;96.80;;;;;;4872363;29;20140;-79
2022/06/16 10:54:35;;;;;;;5.57;3.87;;;22.40;97.30;;;;;;4860411;29;20079;-80
2022/06/16 10:57:24;;;;;;;7.07;4.07;;;22.50;99.10;;;;;;4841113;29;20511;-81
2022/06/16 11:00:11;;;;;;;6.13;3.50;;;22.50;92.50;;;;;;4849373;29;20040;-80
2022/06/16 11:03:05;;;;;;;7.63;4.20;;;22.60;98.00;;;;;;4876673;29;20399;-79
2022/06/16 11:06:09;;;;;;;6.40;4.22;;;22.60;95.00;;;;;;4850595;29;20441;-80
2022/06/16 11:08:39;;;;;;;7.60;5.20;;;22.60;93.40;;;;;;4825625;29;20057;-79
2022/06/16 11:11:05;;;;;;;6.72;4.32;;;22.50;92.10;;;;;;4861570;29;20571;-79
2022/06/16 11:13:38;;;;;;;5.25;3.92;;;22.60;95.40;;;;;;4866982;29;20045;-79
2022/06/16 11:16:11;;;;;;;5.45;3.65;;;22.70;93.30;;;;;;4854930;29;20049;-79
2022/06/16 11:18:38;;;;;;;5.28;3.70;;;22.90;96.20;;;;;;4865063;29;20048;-80
2022/06/16 11:21:22;;;;;;;6.53;4.20;;;23.00;95.50;;;;;;4834692;29;20500;-79
2022/06/16 11:23:50;;;;;;;5.50;4.05;;;22.90;93.60;;;;;;4843166;29;20079;-80
2022/06/16 11:26:16;;;;;;;5.95;4.30;;;22.70;92.20;;;;;;4865527;29;20053;-80
2022/06/16 11:29:09;;;;;;;4.38;3.85;;;22.70;93.40;;;;;;4853378;29;20047;-79
2022/06/16 11:31:44;;;;;;;6.18;3.85;;;22.80;96.30;;;;;;4817064;29;20060;-80
2022/06/16 11:34:21;;;;;;;6.30;3.90;;;23.10;90.60;;;;;;4855199;29;20529;-79
2022/06/16 11:37:28;;;;;;;5.47;3.80;;;23.20;88.90;;;;;;4839570;29;20037;-79
2022/06/16 11:40:05;;;;;;;4.93;3.55;;;23.40;88.40;;;;;;4870766;29;20049;-80
2022/06/16 11:43:03;;;;;;;7.05;4.63;;;23.40;87.80;;;;;;4860496;29;20113;-79
2022/06/16 11:45:53;;;;;;;7.65;4.07;;;23.30;75.30;;;;;;4862582;29;20048;-79
2022/06/16 11:48:38;;;;;;;7.30;4.18;;;23.50;87.30;;;;;;4847812;29;20063;-79
2022/06/16 11:51:31;;;;;;;6.78;4.50;;;23.60;89.80;;;;;;4848274;29;20144;-80
2022/06/16 11:54:00;;;;;;;4.03;3.38;;;23.60;74.80;;;;;;4860251;29;20044;-79
2022/06/16 11:56:49;;;;;;;5.07;3.65;;;23.60;76.70;;;;;;4861429;29;20132;-79
2022/06/16 11:59:33;;;;;;;6.03;3.33;;;23.80;75.50;;;;;;4854121;29;20391;-79
2022/06/16 12:02:15;;;;;;;6.05;3.35;;;24.00;76.30;;;;;;4862131;29;20372;-79
2022/06/16 12:05:06;;;;;;;3.50;2.95;;;24.20;76.50;;;;;;4875259;29;20053;-79
2022/06/16 12:07:52;;;;;;;5.63;3.25;;;24.40;73.60;;;;;;4860821;29;20139;-80
2022/06/16 12:10:42;;;;;;;6.45;3.80;;;24.20;64.40;;;;;;4861704;29;20578;-79
2022/06/16 12:13:27;;;;;;;4.97;3.00;;;23.90;66.40;;;;;;4875534;29;20052;-79
2022/06/16 12:15:56;;;;;;;5.50;3.10;;;24.00;73.00;;;;;;4863113;29;20052;-80
2022/06/16 12:18:43;;;;;;;5.18;3.60;;;23.90;72.20;;;;;;4878496;29;20049;-80
2022/06/16 12:21:21;;;;;;;7.18;4.10;;;23.90;68.60;;;;;;4850565;29;20070;-80
2022/06/16 12:24:09;;;;;;;6.05;3.83;;;23.50;66.10;;;;;;4865283;29;20057;-79
2022/06/16 12:26:44;;;;;;;4.18;3.60;;;23.20;69.90;;;;;;4868851;29;20061;-80
2022/06/16 12:29:13;;;;;;;5.18;3.22;;;23.30;72.10;;;;;;4853687;29;20053;-80
2022/06/16 12:31:48;;;;;;;5.35;3.35;;;23.40;69.60;;;;;;4863013;29;20040;-80
2022/06/16 12:34:31;;;;;;;5.50;3.50;;;23.40;70.90;;;;;;4846609;29;20514;-80
2022/06/16 12:37:04;;;;;;;5.38;3.70;;;23.40;68.50;;;;;;4863589;29;20131;-79
2022/06/16 12:40:03;;;;;;;7.30;3.53;;;23.50;73.90;;;;;;4878450;29;20081;-79
2022/06/16 12:42:35;;;;;;;6.93;3.92;;;23.80;74.40;;;;;;4830388;29;20132;-80
2022/06/16 12:45:00;;;;;;;;;;;23.90;69.20;;;;;;4846991;29;20116;-79
2022/06/16 12:47:35;;;;;;;6.65;3.30;;;23.90;66.50;;;;;;4862363;29;19967;-79
2022/06/16 12:50:03;;;;;;;5.43;3.40;;;23.50;68.60;;;;;;4856943;29;20056;-78
2022/06/16 12:52:54;;;;;;;8.10;4.22;;;23.20;72.10;;;;;;4853912;29;20045;-79
2022/06/16 12:55:30;;;;;;;5.50;3.53;;;23.50;72.80;;;;;;4839724;29;20087;-78
2022/06/16 12:58:15;;;;;;;4.47;3.20;;;23.80;74.40;;;;;;4853820;29;20123;-79
2022/06/16 13:00:46;;;;;;;4.70;3.30;;;23.80;66.70;;;;;;4856269;29;20412;-79
2022/06/16 13:03:17;;;;;;;;;;;23.70;67.80;;;;;;4855089;29;20149;-80
2022/06/16 13:05:45;;;;;;;4.93;3.63;;;23.50;68.70;;;;;;4854093;29;20389;-79
2022/06/16 13:08:12;;;;;;;7.15;4.07;;;23.00;71.50;;;;;;4854946;29;20058;-78
2022/06/16 13:10:43;;;;;;;7.63;3.60;;;22.60;74.50;;;;;;4872676;29;20411;-79
2022/06/16 13:13:10;;;;;;;10.63;4.30;;;22.40;82.70;;;;;;4862376;29;20048;-78
2022/06/16 13:15:43;;;;;;;9.20;3.85;;;22.20;80.80;;;;;;4862691;29;20037;-78
2022/06/16 13:18:15;;;;;;;8.40;3.63;;;22.50;83.60;;;;;;4860529;29;20131;-78
2022/06/16 13:20:45;;;;;;;6.63;3.92;;;22.60;84.00;;;;;;4846215;29;20041;-79
2022/06/16 13:23:15;;;;;;;7.20;4.10;;;22.70;82.00;;;;;;4860387;29;20056;-78
2022/06/16 13:25:53;;;;;;;6.07;3.85;;;22.70;81.80;;;;;;4862536;29;20045;-79
2022/06/16 13:28:36;;;;;;;6.15;3.70;;;22.70;78.30;;;;;;4860328;29;20480;-78
2022/06/16 13:31:23;;;;;;;6.22;3.58;;;22.70;80.90;;;;;;4862856;29;20052;-79
2022/06/16 13:33:55;;;;;;;9.18;4.03;;;22.80;84.30;;;;;;4845841;29;20170;-79
2022/06/16 13:36:26;;;;;;;13.57;4.40;;;23.00;77.70;;;;;;4862950;29;20084;-79
2022/06/16 13:38:53;;;;;;;;;;;23.00;81.90;;;;;;4863223;29;20132;-78